Time;durP1;ratioP1;P1;durP2;ratioP2;P2;SDS_P1;SDS_P2;PMS_P1;PMS_P2;Temp;Humidity;BMP_temperature;BMP_pressure;BME280_temperature;BME280_humidity;BME280_pressure;Samples;Min_cycle;Max_cycle;Signal;HPM_P1;HPM_P2
2022/02/04 00:09:39;;;;;;;4.93;4.43;;;;;;;10.06;57.30;97663.19;8415060;28;20451;-67
2022/02/04 00:22:44;;;;;;;5.40;4.93;;;;;;;9.99;57.01;97678.13;8414880;28;20242;-67
2022/02/04 00:26:52;;;;;;;5.80;5.30;;;;;;;10.00;56.93;97672.06;8414507;28;20536;-67
2022/02/04 00:31:14;;;;;;;5.57;4.90;;;;;;;10.07;57.21;97667.44;8414733;28;20222;-67
2022/02/04 00:35:28;;;;;;;6.93;6.27;;;;;;;9.84;56.66;97674.50;8428331;28;20233;-68
2022/02/04 00:39:38;;;;;;;6.73;6.13;;;;;;;9.77;57.75;97671.38;8439476;28;20230;-67
2022/02/04 00:43:43;;;;;;;7.53;6.70;;;;;;;9.56;58.13;97683.53;8447472;28;20230;-67
2022/02/04 00:47:54;;;;;;;7.20;6.60;;;;;;;9.66;58.19;97678.78;8447980;28;20560;-67
2022/02/04 00:52:04;;;;;;;6.93;6.30;;;;;;;9.73;58.44;97681.94;8447475;28;20238;-67
2022/02/04 00:56:17;;;;;;;7.57;6.87;;;;;;;9.76;58.64;97677.44;8447180;28;20233;-67
2022/02/04 01:26:25;;;;;;;8.10;7.40;;;;;;;9.84;59.66;97678.84;8386888;28;20235;-65
2022/02/04 01:30:32;;;;;;;8.53;7.83;;;;;;;9.89;59.85;97679.47;8386658;28;20542;-66
2022/02/04 01:34:35;;;;;;;8.40;7.60;;;;;;;9.78;60.23;97680.78;8386269;28;20223;-66
2022/02/04 01:38:40;;;;;;;8.30;7.60;;;;;;;9.83;60.54;97688.34;8386561;28;20242;-66
2022/02/04 01:42:43;;;;;;;8.30;7.47;;;;;;;9.87;60.72;97681.31;8387082;28;20254;-66
2022/02/04 01:46:46;;;;;;;8.70;8.00;;;;;;;9.87;60.40;97673.53;8388268;28;20531;-65
2022/02/04 01:50:50;;;;;;;9.23;8.33;;;;;;;9.80;60.40;97678.13;8387961;28;20203;-66
2022/02/04 01:54:54;;;;;;;9.33;8.43;;;;;;;9.79;60.99;97674.72;8387942;28;20235;-65
2022/02/04 01:58:57;;;;;;;9.60;8.70;;;;;;;9.75;61.59;97672.38;8387335;28;20227;-65
2022/02/04 02:03:00;;;;;;;9.77;8.87;;;;;;;9.62;62.10;97672.06;8400247;28;20238;-66
2022/02/04 02:07:10;;;;;;;9.60;8.70;;;;;;;9.62;62.18;97682.41;8417944;28;20238;-66
2022/02/04 02:11:14;;;;;;;9.57;8.67;;;;;;;9.70;62.16;97687.25;8418611;28;20234;-66
2022/02/04 02:15:24;;;;;;;9.40;8.50;;;;;;;9.52;62.60;97688.88;8418667;28;20556;-66
2022/02/04 02:50:21;;;;;;;7.40;6.70;;;;;;;9.41;62.36;97676.47;8384008;28;20238;-66
2022/02/04 02:59:04;;;;;;;7.10;6.50;;;;;;;9.51;61.56;97689.81;8314728;28;20430;-66
2022/02/04 03:03:09;;;;;;;7.47;6.70;;;;;;;9.49;61.69;97682.13;8362882;28;20272;-66
2022/02/04 03:07:12;;;;;;;6.83;6.23;;;;;;;9.51;61.53;97698.41;8416976;28;20222;-66
2022/02/04 03:11:16;;;;;;;7.33;6.63;;;;;;;9.48;61.99;97695.09;8416791;28;20572;-66
2022/02/04 03:15:21;;;;;;;6.63;5.87;;;;;;;9.57;61.15;97692.13;8416875;28;20549;-66
2022/02/04 03:19:26;;;;;;;7.10;6.40;;;;;;;9.58;61.46;97686.88;8416473;28;20237;-66
2022/02/04 03:23:31;;;;;;;7.70;6.47;;;;;;;9.57;61.25;97686.94;8416132;28;20234;-65
2022/02/04 03:27:39;;;;;;;7.57;6.87;;;;;;;9.52;61.46;97694.06;8415763;28;20230;-65
2022/02/04 03:31:49;;;;;;;8.47;7.50;;;;;;;9.55;61.06;97694.75;8416443;28;20565;-66
2022/02/04 03:35:52;;;;;;;7.50;6.77;;;;;;;9.55;61.43;97693.94;8414810;28;20231;-66
2022/02/04 03:39:55;;;;;;;8.83;8.03;;;;;;;9.51;61.71;97698.41;8415761;28;20231;-65
2022/02/04 03:43:58;;;;;;;8.47;7.73;;;;;;;9.61;61.25;97703.16;8415426;28;20242;-66
2022/02/04 03:48:02;;;;;;;8.80;8.00;;;;;;;9.51;61.54;97700.97;8415963;28;20549;-66
2022/02/04 03:52:06;;;;;;;8.63;7.83;;;;;;;9.53;61.61;97700.91;8415835;28;20242;-65
2022/02/04 03:56:09;;;;;;;8.60;7.80;;;;;;;9.57;61.15;97702.44;8414965;28;20239;-66
2022/02/04 04:00:14;;;;;;;9.03;7.87;;;;;;;9.56;61.02;97706.78;8402989;28;20227;-65
2022/02/04 04:04:19;;;;;;;7.80;7.03;;;;;;;9.78;60.73;97711.81;8407408;28;20417;-66
2022/02/04 04:08:21;;;;;;;9.00;8.10;;;;;;;9.35;61.65;97715.50;8407986;28;20230;-66
2022/02/04 04:12:25;;;;;;;9.23;8.20;;;;;;;9.45;61.30;97715.94;8397232;28;20238;-66
2022/02/04 04:16:28;;;;;;;9.60;8.70;;;;;;;9.45;61.08;97721.09;8397402;28;20233;-66
2022/02/04 04:20:33;;;;;;;9.60;8.67;;;;;;;9.38;61.38;97717.94;8396931;28;20224;-66
2022/02/04 04:24:36;;;;;;;9.70;8.80;;;;;;;9.43;61.31;97718.56;8396789;28;20222;-67
2022/02/04 04:28:39;;;;;;;9.47;8.40;;;;;;;9.42;61.00;97724.66;8397005;28;20252;-66
2022/02/04 04:32:43;;;;;;;9.20;8.40;;;;;;;9.42;60.49;97723.81;8403560;28;20240;-66
2022/02/04 04:36:47;;;;;;;9.60;8.70;;;;;;;9.49;60.96;97722.66;8414185;28;20560;-66
2022/02/04 04:41:05;;;;;;;9.10;8.20;;;;;;;9.36;61.22;97725.75;8414086;28;20231;-65
2022/02/04 04:45:41;;;;;;;8.60;7.80;;;;;;;9.38;60.68;97728.28;8413649;28;20235;-66
2022/02/04 05:29:00;;;;;;;9.77;8.67;;;;;;;9.47;60.08;97752.91;8413770;28;20227;-65
2022/02/04 05:33:03;;;;;;;9.77;8.87;;;;;;;9.35;60.22;97746.50;8412982;28;20230;-66
2022/02/04 05:37:08;;;;;;;10.60;9.60;;;;;;;9.37;60.02;97752.44;8413519;28;20249;-66
2022/02/04 05:41:14;;;;;;;10.70;9.07;;;;;;;9.42;60.28;97754.81;8413021;28;20243;-65
2022/02/04 05:45:21;;;;;;;9.30;8.40;;;;;;;9.27;60.64;97746.84;8412877;28;20226;-66
2022/02/04 05:49:27;;;;;;;9.07;8.20;;;;;;;9.32;60.66;97746.63;8413139;28;20238;-66
2022/02/04 05:53:36;;;;;;;10.67;8.77;;;;;;;9.23;60.40;97747.03;8412164;28;20231;-66
2022/02/04 05:57:54;;;;;;;9.60;8.30;;;;;;;9.26;59.80;97744.31;8412983;28;20230;-66
2022/02/04 06:02:07;;;;;;;8.43;7.63;;;;;;;9.27;59.65;97753.72;8406541;28;20228;-66
2022/02/04 06:06:37;;;;;;;8.13;7.33;;;;;;;9.48;58.73;97755.41;8410173;28;20230;-65
2022/02/04 06:11:05;;;;;;;6.90;6.20;;;;;;;9.43;59.18;97759.94;8410414;28;20215;-65
2022/02/04 06:23:53;;;;;;;4.60;4.20;;;;;;;9.14;58.31;97766.34;8392354;28;20230;-65
2022/02/04 06:27:56;;;;;;;4.40;3.77;;;;;;;9.00;58.56;97762.59;8406409;28;20234;-65
2022/02/04 06:32:00;;;;;;;4.20;3.80;;;;;;;9.03;58.33;97760.78;8394752;28;20561;-65
2022/02/04 06:36:05;;;;;;;4.20;3.80;;;;;;;9.04;58.43;97768.44;8384498;28;20227;-65
2022/02/04 06:40:09;;;;;;;4.77;3.47;;;;;;;8.99;58.18;97768.66;8384633;28;20232;-65
2022/02/04 06:44:12;;;;;;;4.13;3.73;;;;;;;9.03;58.15;97765.94;8384943;28;20408;-65
2022/02/04 06:48:15;;;;;;;3.50;3.00;;;;;;;9.02;57.78;97772.00;8384628;28;20238;-65
2022/02/04 06:52:20;;;;;;;3.60;2.87;;;;;;;9.10;57.87;97775.09;8384376;28;20266;-65
2022/02/04 06:56:23;;;;;;;3.30;2.90;;;;;;;9.27;57.33;97772.69;8384251;28;20534;-65
2022/02/04 07:00:28;;;;;;;3.37;3.07;;;;;;;9.29;56.84;97782.94;8384516;28;20231;-65
2022/02/04 07:04:35;;;;;;;2.87;2.67;;;;;;;9.09;58.24;97786.34;8410420;28;20462;-67
2022/02/04 07:08:47;;;;;;;3.43;2.80;;;;;;;9.47;56.70;97789.09;8416743;28;20239;-65
2022/02/04 07:12:58;;;;;;;2.93;2.70;;;;;;;9.17;57.00;97792.88;8416161;28;20235;-65
2022/02/04 07:17:15;;;;;;;3.13;2.63;;;;;;;9.11;58.00;97784.56;8416467;28;20226;-65
2022/02/04 07:21:18;;;;;;;3.10;2.80;;;;;;;9.12;57.74;97792.25;8416553;28;20226;-65
2022/02/04 07:25:22;;;;;;;2.83;2.50;;;;;;;9.16;57.08;97798.13;8416247;28;20231;-65
2022/02/04 07:29:25;;;;;;;3.33;2.67;;;;;;;9.18;57.30;97797.16;8434465;28;20433;-65
2022/02/04 07:33:40;;;;;;;3.30;3.00;;;;;;;9.25;57.37;97795.13;8449826;28;20536;-65
2022/02/04 07:42:08;;;;;;;4.83;3.20;;;;;;;9.26;56.87;97793.41;8449101;28;20230;-65
2022/02/04 07:46:12;;;;;;;3.70;3.40;;;;;;;9.39;56.66;97794.56;8449281;28;20230;-65
2022/02/04 07:50:20;;;;;;;4.33;3.93;;;;;;;9.47;56.36;97792.50;8449280;28;20237;-65
2022/02/04 07:54:23;;;;;;;5.33;4.70;;;;;;;9.52;56.66;97802.63;8449002;28;20238;-65
2022/02/04 07:58:28;;;;;;;4.90;4.40;;;;;;;9.44;56.82;97795.19;8448753;28;20552;-65
2022/02/04 08:02:32;;;;;;;4.73;4.23;;;;;;;9.50;56.83;97796.69;8426808;28;20338;-66
2022/02/04 08:06:40;;;;;;;5.17;4.73;;;;;;;9.66;56.66;97807.22;8381814;28;20242;-65
2022/02/04 08:10:48;;;;;;;5.30;4.77;;;;;;;9.63;56.42;97805.59;8381663;28;20407;-65
2022/02/04 08:15:05;;;;;;;5.13;4.50;;;;;;;9.69;56.41;97801.91;8381817;28;20291;-65
2022/02/04 08:19:26;;;;;;;4.97;4.57;;;;;;;9.76;56.35;97804.16;8381830;28;20232;-65
2022/02/04 08:24:00;;;;;;;5.30;4.70;;;;;;;9.56;56.31;97801.63;8381202;28;20242;-65
2022/02/04 08:32:45;;;;;;;5.83;4.70;;;;;;;9.79;57.21;97798.88;8381099;28;20593;-65
2022/02/04 08:50:26;;;;;;;4.40;2.47;;;;;;;9.57;57.82;97804.09;8380249;28;20227;-65
2022/02/04 08:54:33;;;;;;;2.47;2.03;;;;;;;9.92;57.23;97809.50;8380363;28;20235;-65
2022/02/04 08:58:40;;;;;;;2.13;1.93;;;;;;;9.82;57.45;97804.81;8379919;28;20227;-65
2022/02/04 09:02:51;;;;;;;2.30;2.00;;;;;;;9.57;58.24;97811.88;8379972;28;20325;-66
2022/02/04 09:07:03;;;;;;;2.00;1.80;;;;;;;9.64;58.13;97804.69;8380247;28;20235;-65
2022/02/04 09:11:10;;;;;;;2.30;2.10;;;;;;;9.81;58.28;97808.31;8380054;28;20227;-65
2022/02/04 09:19:57;;;;;;;1.87;1.70;;;;;;;9.68;57.77;97798.50;8379770;28;20227;-65
2022/02/04 09:24:02;;;;;;;2.07;1.63;;;;;;;9.98;57.38;97798.06;8380478;28;20231;-65
2022/02/04 09:28:10;;;;;;;4.50;2.30;;;;;;;9.78;57.63;97797.16;8380302;28;20253;-65
2022/02/04 09:32:13;;;;;;;1.90;1.73;;;;;;;9.75;57.97;97792.16;8382070;28;20235;-65
2022/02/04 09:36:19;;;;;;;2.00;1.90;;;;;;;10.15;56.68;97792.13;8387082;28;20227;-65
2022/02/04 09:40:24;;;;;;;1.83;1.63;;;;;;;10.49;55.97;97790.59;8387044;28;20238;-65
2022/02/04 09:44:27;;;;;;;1.50;1.40;;;;;;;10.11;57.17;97793.16;8386596;28;20238;-65
2022/02/04 09:48:30;;;;;;;2.37;2.00;;;;;;;10.15;57.11;97787.78;8385997;28;20558;-65
2022/02/04 10:19:15;;;;;;;3.37;2.30;;;;;;;12.29;54.69;97772.03;8385119;28;20243;-64
2022/02/04 10:23:18;;;;;;;3.30;3.00;;;;;;;11.34;55.24;97770.03;8384841;28;20235;-64
2022/02/04 10:27:23;;;;;;;2.60;2.33;;;;;;;11.27;54.42;97763.50;8385036;28;20231;-64
2022/02/04 10:31:28;;;;;;;2.23;2.03;;;;;;;10.62;56.12;97760.59;8384980;28;20243;-64
2022/02/04 10:35:34;;;;;;;2.50;2.30;;;;;;;11.11;55.57;97755.63;8384046;28;20238;-64
2022/02/04 10:44:17;;;;;;;2.60;2.40;;;;;;;11.24;55.40;97729.94;8383958;28;20246;-60
2022/02/04 10:48:38;;;;;;;2.67;2.17;;;;;;;10.87;56.38;97726.63;8388939;28;20546;-60
2022/02/04 10:53:04;;;;;;;3.27;2.50;;;;;;;10.90;56.03;97718.66;8417081;28;20230;-60
2022/02/04 10:57:25;;;;;;;2.30;2.10;;;;;;;11.51;54.92;97709.53;8388263;28;20523;-60
2022/02/04 11:01:37;;;;;;;2.50;2.30;;;;;;;11.42;54.79;97703.97;8387885;28;20231;-60
2022/02/04 11:05:53;;;;;;;2.17;2.00;;;;;;;11.28;53.97;97702.94;8450142;28;20230;-60
2022/02/04 11:10:10;;;;;;;3.07;2.10;;;;;;;11.40;54.33;97696.28;8450233;28;20226;-59
2022/02/04 11:36:48;;;;;;;1.40;1.30;;;;;;;10.95;52.21;97669.22;8385880;28;20224;-59
2022/02/04 11:55:00;;;;;;;1.70;1.50;;;;;;;11.05;52.98;97652.28;8304578;28;20223;-60
2022/02/04 11:59:04;;;;;;;1.37;1.27;;;;;;;11.09;52.58;97640.84;8381707;28;20231;-60
2022/02/04 12:03:31;;;;;;;1.30;1.10;;;;;;;10.87;52.21;97633.34;8381720;28;20467;-59
2022/02/04 12:07:35;;;;;;;2.20;1.50;;;;;;;10.85;52.60;97626.56;8381428;28;20228;-60
2022/02/04 12:11:40;;;;;;;1.10;1.00;;;;;;;10.79;51.63;97624.28;8381413;28;20421;-60
2022/02/04 12:15:46;;;;;;;1.33;0.90;;;;;;;10.79;51.61;97613.91;8381538;28;20239;-59
2022/02/04 12:19:52;;;;;;;1.07;0.90;;;;;;;10.55;50.52;97620.25;8381545;28;20433;-62
2022/02/04 12:23:56;;;;;;;1.27;0.80;;;;;;;10.68;50.42;97614.44;8381425;28;20238;-60
2022/02/04 12:28:00;;;;;;;2.07;0.83;;;;;;;10.62;50.68;97623.38;8381124;28;20297;-60
2022/02/04 12:32:06;;;;;;;0.77;0.63;;;;;;;10.52;50.32;97614.38;8395111;28;20223;-60
2022/02/04 12:36:13;;;;;;;0.50;0.50;;;;;;;10.61;50.58;97610.53;8392408;28;20223;-60
2022/02/04 12:40:16;;;;;;;1.53;1.00;;;;;;;10.39;51.06;97615.91;8391003;28;20223;-59
2022/02/04 12:44:21;;;;;;;1.00;0.83;;;;;;;10.58;50.71;97606.31;8396296;28;20469;-60
2022/02/04 12:48:27;;;;;;;0.70;0.70;;;;;;;10.41;51.24;97611.50;8401568;28;20226;-60
2022/02/04 12:52:41;;;;;;;0.60;0.60;;;;;;;10.38;50.75;97617.66;8410413;28;20402;-59
2022/02/04 12:57:14;;;;;;;1.10;0.90;;;;;;;10.25;51.53;97599.28;8387522;28;20223;-61
2022/02/04 13:09:51;;;;;;;0.80;0.80;;;;;;;10.34;51.86;97585.09;8398893;28;20222;-60
2022/02/04 13:13:59;;;;;;;0.60;0.60;;;;;;;10.22;51.54;97580.47;8394584;28;20238;-60
2022/02/04 13:18:05;;;;;;;1.57;1.00;;;;;;;10.32;51.80;97569.63;8395925;28;20222;-60
2022/02/04 13:22:10;;;;;;;1.20;1.10;;;;;;;10.38;51.75;97560.72;8396154;28;20222;-59
2022/02/04 13:26:14;;;;;;;1.37;1.03;;;;;;;10.87;50.90;97559.97;8397532;28;20433;-60
2022/02/04 13:30:24;;;;;;;0.63;0.63;;;;;;;10.80;50.20;97548.25;8392063;28;20422;-59
2022/02/04 13:34:29;;;;;;;0.93;0.60;;;;;;;10.73;49.77;97545.13;8396068;28;20226;-60
2022/02/04 13:38:46;;;;;;;0.60;0.60;;;;;;;10.90;50.10;97531.31;8395460;28;20222;-60
2022/02/04 13:42:53;;;;;;;1.03;0.73;;;;;;;10.87;50.08;97531.47;8397022;28;20235;-59
2022/02/04 13:47:13;;;;;;;0.70;0.60;;;;;;;10.69;49.94;97531.50;8403206;28;20290;-60
2022/02/04 13:51:24;;;;;;;1.90;1.07;;;;;;;10.44;50.94;97520.75;8395861;28;20227;-60
2022/02/04 13:55:39;;;;;;;1.23;0.80;;;;;;;10.32;50.85;97511.88;8395698;28;20242;-59
2022/02/04 13:59:48;;;;;;;3.33;2.93;;;;;;;10.17;51.64;97516.84;8387068;28;20398;-60
2022/02/04 14:03:59;;;;;;;1.00;1.00;;;;;;;10.29;51.35;97510.22;8395386;28;20246;-60
2022/02/04 14:08:07;;;;;;;1.20;1.10;;;;;;;10.27;51.39;97511.22;8393864;28;20227;-60
2022/02/04 14:12:19;;;;;;;2.17;1.97;;;;;;;10.20;51.41;97513.25;8395376;28;20390;-60
2022/02/04 14:16:23;;;;;;;4.03;2.20;;;;;;;10.12;51.24;97511.06;8395588;28;20234;-60
2022/02/04 14:20:26;;;;;;;1.50;1.40;;;;;;;10.03;51.64;97513.25;8398578;28;20229;-60
2022/02/04 14:24:29;;;;;;;1.20;1.10;;;;;;;10.26;51.73;97491.41;8401201;28;20234;-60
2022/02/04 14:28:41;;;;;;;2.30;0.80;;;;;;;10.10;51.39;97489.59;8395125;28;20234;-60
2022/02/04 14:32:52;;;;;;;0.83;0.83;;;;;;;10.09;51.48;97477.59;8400682;28;20230;-60
2022/02/04 14:37:03;;;;;;;0.70;0.70;;;;;;;10.11;52.10;97477.50;8400919;28;20549;-60
2022/02/04 14:54:26;;;;;;;1.30;0.93;;;;;;;10.01;52.11;97461.59;8379256;28;20421;-60
2022/02/04 15:03:13;;;;;;;0.90;0.90;;;;;;;10.01;51.92;97450.41;8378746;28;20239;-59
2022/02/04 15:07:17;;;;;;;1.27;0.80;;;;;;;10.14;51.75;97446.28;8383859;28;20235;-60
2022/02/04 15:11:28;;;;;;;3.70;1.00;;;;;;;10.22;51.78;97435.56;8383828;28;20235;-59
2022/02/04 15:15:31;;;;;;;1.57;1.10;;;;;;;10.20;51.97;97442.56;8383191;28;20238;-60
2022/02/04 15:19:43;;;;;;;1.57;1.20;;;;;;;10.24;51.79;97441.47;8383466;28;20236;-60
2022/02/04 15:23:50;;;;;;;0.67;0.67;;;;;;;10.22;51.86;97433.78;8383258;28;20238;-60
2022/02/04 15:28:03;;;;;;;1.50;1.03;;;;;;;10.15;52.48;97433.28;8383214;28;20227;-59
2022/02/04 15:32:06;;;;;;;1.37;0.90;;;;;;;10.12;52.75;97441.19;8383269;28;20417;-60
2022/02/04 15:36:10;;;;;;;0.77;0.77;;;;;;;9.92;52.34;97434.44;8383244;28;20239;-59
2022/02/04 15:40:14;;;;;;;1.17;0.90;;;;;;;9.85;52.89;97425.31;8382837;28;20250;-60
2022/02/04 15:44:23;;;;;;;1.20;1.10;;;;;;;9.94;52.20;97426.63;8382729;28;20265;-59
2022/02/04 15:48:39;;;;;;;0.90;0.80;;;;;;;9.93;52.21;97427.53;8387911;28;20255;-59
2022/02/04 15:52:52;;;;;;;0.83;0.83;;;;;;;9.77;52.11;97424.88;8415571;28;20226;-60
2022/02/04 15:57:01;;;;;;;1.20;1.10;;;;;;;9.85;51.65;97427.09;8414883;28;20238;-59
2022/02/04 16:01:26;;;;;;;1.10;1.00;;;;;;;9.97;51.27;97429.88;8403584;28;20238;-59
2022/02/04 16:05:31;;;;;;;1.70;1.00;;;;;;;9.93;51.00;97424.94;8415329;28;20538;-60
2022/02/04 16:09:36;;;;;;;1.37;1.17;;;;;;;10.03;50.76;97430.47;8414970;28;20234;-60
2022/02/04 16:13:44;;;;;;;1.30;1.20;;;;;;;9.96;51.20;97417.03;8414453;28;20328;-60
2022/02/04 16:17:54;;;;;;;1.57;1.10;;;;;;;9.97;51.06;97429.03;8413742;28;20424;-60
2022/02/04 16:22:16;;;;;;;1.20;1.10;;;;;;;10.04;51.06;97430.41;8448402;28;20230;-60
2022/02/04 16:26:46;;;;;;;2.03;1.10;;;;;;;9.90;51.10;97430.25;8448180;28;20431;-60
2022/02/04 16:30:51;;;;;;;1.07;1.00;;;;;;;9.60;51.49;97423.13;8441585;28;20226;-60
2022/02/04 16:34:55;;;;;;;1.10;1.00;;;;;;;9.83;51.72;97442.66;8447472;28;20240;-61
2022/02/04 16:38:58;;;;;;;2.63;1.03;;;;;;;9.75;51.62;97439.63;8447573;28;20230;-60
2022/02/04 16:43:03;;;;;;;2.10;1.30;;;;;;;9.82;51.54;97445.31;8447304;28;20233;-60
2022/02/04 16:47:06;;;;;;;1.10;1.00;;;;;;;9.71;51.70;97457.03;8447289;28;20238;-61
2022/02/04 16:51:10;;;;;;;1.50;1.07;;;;;;;9.55;51.67;97446.59;8394215;28;20420;-61
2022/02/04 16:55:13;;;;;;;1.33;1.10;;;;;;;9.21;52.59;97442.19;8399434;28;20328;-60
2022/02/04 16:59:17;;;;;;;1.80;1.17;;;;;;;9.66;52.21;97443.50;8413916;28;20234;-61
2022/02/04 17:03:21;;;;;;;2.77;1.30;;;;;;;9.47;52.87;97453.06;8413669;28;20249;-61
2022/02/04 17:07:26;;;;;;;1.00;0.90;;;;;;;9.44;52.91;97448.84;8413601;28;20231;-61
2022/02/04 17:11:29;;;;;;;1.20;1.10;;;;;;;9.52;52.60;97446.75;8413945;28;20237;-61
2022/02/04 17:15:36;;;;;;;2.10;1.90;;;;;;;9.53;52.35;97438.06;8413088;28;20241;-62
2022/02/04 17:19:45;;;;;;;3.57;3.27;;;;;;;9.72;52.37;97450.94;8413187;28;20230;-61
2022/02/04 17:23:52;;;;;;;5.10;4.13;;;;;;;9.78;52.45;97445.47;8413396;28;20425;-61
2022/02/04 17:27:56;;;;;;;1.63;1.10;;;;;;;9.74;52.85;97445.69;8413289;28;20231;-60
2022/02/04 17:32:01;;;;;;;2.17;1.97;;;;;;;9.89;52.32;97450.13;8406581;28;20246;-60
2022/02/04 17:36:04;;;;;;;1.60;1.47;;;;;;;9.82;53.10;97435.81;8396011;28;20227;-60
2022/02/04 17:40:10;;;;;;;1.50;1.40;;;;;;;9.70;54.07;97436.44;8396043;28;20241;-60
2022/02/04 17:44:14;;;;;;;2.07;1.40;;;;;;;9.48;54.80;97431.44;8396154;28;20229;-61
2022/02/04 17:48:23;;;;;;;1.30;1.20;;;;;;;9.72;54.69;97429.44;8383611;28;20401;-60
2022/02/04 17:52:36;;;;;;;1.20;1.10;;;;;;;9.77;54.66;97428.28;8413423;28;20230;-60
2022/02/04 17:56:52;;;;;;;2.00;1.67;;;;;;;9.84;54.63;97427.97;8408171;28;20227;-61
2022/02/04 18:09:33;;;;;;;2.20;2.00;;;;;;;9.69;55.41;97407.16;8385279;28;20227;-60
2022/02/04 18:13:36;;;;;;;2.53;1.80;;;;;;;9.76;55.38;97416.25;8384787;28;20231;-60
2022/02/04 18:17:39;;;;;;;2.30;2.10;;;;;;;9.75;55.07;97418.94;8384995;28;20231;-61
2022/02/04 18:21:45;;;;;;;2.03;1.80;;;;;;;9.59;55.85;97398.16;8383697;28;20235;-61
2022/02/04 18:25:50;;;;;;;1.67;1.40;;;;;;;9.52;55.59;97389.03;8381439;28;20224;-61
2022/02/04 18:29:57;;;;;;;2.93;1.50;;;;;;;9.61;55.64;97388.59;8381078;28;20227;-61
2022/02/04 18:34:04;;;;;;;3.07;1.80;;;;;;;9.65;55.24;97404.78;8380902;28;20242;-61
2022/02/04 18:38:15;;;;;;;1.90;1.40;;;;;;;9.50;55.28;97403.78;8381071;28;20227;-61
2022/02/04 18:42:43;;;;;;;4.30;2.37;;;;;;;9.56;55.33;97413.84;8389561;28;20424;-61
2022/02/04 18:46:58;;;;;;;3.00;2.13;;;;;;;9.45;55.33;97409.19;8380160;28;20277;-61
2022/02/04 18:51:20;;;;;;;3.77;2.30;;;;;;;9.49;55.65;97404.72;8380421;28;20290;-63
2022/02/04 18:55:58;;;;;;;2.70;2.10;;;;;;;9.48;55.60;97406.47;8381672;28;20341;-61
2022/02/04 19:00:18;;;;;;;4.03;2.20;;;;;;;9.37;55.88;97411.31;8381790;28;20527;-62
2022/02/04 19:04:29;;;;;;;3.90;3.03;;;;;;;9.65;55.02;97430.63;8379894;28;20227;-61
2022/02/04 19:08:39;;;;;;;3.00;2.23;;;;;;;9.55;54.91;97427.66;8377809;28;20235;-62
2022/02/04 19:12:49;;;;;;;2.20;1.77;;;;;;;9.48;55.42;97416.81;8380638;28;20232;-61
2022/02/04 19:16:57;;;;;;;2.27;1.60;;;;;;;9.31;55.90;97396.09;8384047;28;20228;-61
2022/02/04 19:21:06;;;;;;;3.47;2.30;;;;;;;9.53;55.79;97401.06;8383880;28;20228;-61
2022/02/04 19:25:12;;;;;;;1.60;1.40;;;;;;;9.42;55.49;97401.56;8383922;28;20224;-61
2022/02/04 19:29:16;;;;;;;1.80;1.43;;;;;;;9.53;55.23;97401.06;8383971;28;20238;-61
2022/02/04 19:33:21;;;;;;;1.37;1.20;;;;;;;9.67;55.02;97395.19;8383548;28;20234;-61
2022/02/04 19:37:24;;;;;;;1.67;1.37;;;;;;;9.64;55.04;97396.19;8383482;28;20261;-61
2022/02/04 19:41:29;;;;;;;1.00;0.90;;;;;;;9.73;54.83;97393.16;8382884;28;20231;-61
2022/02/04 19:45:43;;;;;;;1.03;0.90;;;;;;;9.65;55.00;97392.69;8382057;28;20534;-61
2022/02/04 19:49:54;;;;;;;1.13;1.07;;;;;;;9.88;55.48;97385.53;8398812;28;20553;-61
2022/02/04 20:25:07;;;;;;;1.57;1.00;;;;;;;9.55;55.74;97391.47;8462919;28;20235;-60
2022/02/04 20:29:13;;;;;;;1.13;0.80;;;;;;;9.66;55.50;97398.72;8432607;28;20264;-60
2022/02/04 20:33:19;;;;;;;2.33;1.13;;;;;;;9.57;55.74;97394.81;8406797;28;20238;-60
2022/02/04 20:37:24;;;;;;;2.67;1.30;;;;;;;9.69;55.42;97393.38;8427852;28;20226;-60
2022/02/04 20:41:31;;;;;;;5.03;1.20;;;;;;;10.76;63.07;97387.84;8439336;28;20230;-68
2022/02/04 20:45:38;;;;;;;1.20;1.10;;;;;;;10.39;55.10;97381.19;8438271;28;20246;-65
2022/02/04 20:49:43;;;;;;;1.33;1.10;;;;;;;10.17;54.85;97390.06;8415170;28;20428;-65
2022/02/04 20:53:47;;;;;;;1.57;1.30;;;;;;;10.15;54.83;97386.72;8429189;28;20295;-64
2022/02/04 20:57:54;;;;;;;1.30;1.00;;;;;;;10.00;55.02;97387.50;8412960;28;20233;-64
2022/02/04 21:02:00;;;;;;;0.97;0.80;;;;;;;9.98;55.12;97389.34;8426411;28;20234;-64
2022/02/04 21:06:14;;;;;;;1.03;0.90;;;;;;;9.84;55.84;97396.94;8413595;28;20238;-66
2022/02/04 21:19:08;;;;;;;1.30;1.10;;;;;;;9.71;57.91;97388.97;8420712;28;20234;-64
2022/02/04 21:23:17;;;;;;;1.57;0.93;;;;;;;9.82;57.17;97383.25;8392071;28;20237;-64
2022/02/04 21:27:22;;;;;;;2.23;0.90;;;;;;;9.88;57.39;97385.53;8398730;28;20222;-64
2022/02/04 21:31:27;;;;;;;1.73;1.00;;;;;;;9.73;58.19;97395.75;8397385;28;20280;-65
2022/02/04 21:39:55;;;;;;;3.07;1.20;;;;;;;9.64;59.59;97408.31;8381495;28;20231;-65
2022/02/04 21:44:00;;;;;;;1.53;1.00;;;;;;;9.53;60.13;97408.81;8397709;28;20342;-67
2022/02/04 21:48:07;;;;;;;2.07;1.00;;;;;;;9.41;61.75;97423.19;8390738;28;20239;-66
2022/02/04 21:52:14;;;;;;;4.00;1.47;;;;;;;9.51;62.78;97489.00;8395816;28;20234;-67
2022/02/04 21:56:19;;;;;;;1.87;1.10;;;;;;;8.60;61.52;97554.25;8394726;28;20486;-66
2022/02/04 22:00:23;;;;;;;2.80;1.23;;;;;;;7.53;61.94;97568.00;8399587;28;20238;-67
2022/02/04 22:04:26;;;;;;;3.30;1.60;;;;;;;7.31;61.72;97565.44;8399786;28;20229;-66
2022/02/04 22:08:40;;;;;;;4.00;1.40;;;;;;;7.55;60.86;97534.44;8394457;28;20251;-66
2022/02/04 22:12:54;;;;;;;2.37;1.10;;;;;;;7.63;60.46;97564.19;8370182;28;20227;-66
2022/02/04 22:17:12;;;;;;;1.00;0.50;;;;;;;8.64;57.93;97567.88;8381400;28;20423;-66
2022/02/04 22:25:37;;;;;;;0.87;0.70;;;;;;;8.15;58.74;97588.81;8409087;28;20511;-67
2022/02/04 22:29:49;;;;;;;1.17;0.83;;;;;;;8.09;59.42;97607.09;8416360;28;20234;-67
2022/02/04 22:34:01;;;;;;;1.63;1.10;;;;;;;8.18;58.81;97625.59;8416266;28;20241;-66
2022/02/04 22:38:44;;;;;;;1.20;1.07;;;;;;;7.97;59.01;97626.47;8420432;28;20237;-67
2022/02/04 22:51:41;;;;;;;2.60;1.70;;;;;;;7.54;59.66;97659.88;8395653;28;20543;-66
2022/02/04 22:56:01;;;;;;;1.90;1.57;;;;;;;7.51;59.19;97677.19;8397039;28;20215;-66
2022/02/04 23:00:24;;;;;;;2.63;1.30;;;;;;;7.59;59.48;97688.06;8397905;28;20550;-67
2022/02/04 23:04:30;;;;;;;2.17;1.53;;;;;;;7.45;59.45;97716.91;8387312;28;20440;-66
2022/02/04 23:08:35;;;;;;;2.80;1.57;;;;;;;7.52;60.01;97738.13;8381490;28;20235;-66
2022/02/04 23:12:39;;;;;;;1.70;1.60;;;;;;;7.49;59.68;97746.81;8381959;28;20235;-66
2022/02/04 23:16:48;;;;;;;1.70;1.50;;;;;;;7.54;59.90;97741.50;8381803;28;20251;-66
2022/02/04 23:20:54;;;;;;;2.90;1.87;;;;;;;7.71;59.06;97749.47;8401237;28;20245;-66
2022/02/04 23:29:22;;;;;;;3.63;1.30;;;;;;;7.28;59.71;97771.59;8410108;28;20242;-66
2022/02/04 23:47:14;;;;;;;4.87;3.20;;;;;;;7.42;58.85;97809.75;8378232;28;20238;-65
2022/02/04 23:51:20;;;;;;;1.97;1.87;;;;;;;7.39;58.70;97815.88;8414219;28;20235;-66
2022/02/04 23:55:26;;;;;;;4.30;2.30;;;;;;;7.37;58.23;97822.81;8414127;28;20247;-66
